WetterOnline ( http://www.wetteronline.de )

Wetter aktuell Roth

Aktuelles Wetter: Roth (386m)

6-stündlich | Neueste Meldungen
Ortszeit Temperatur Wetter
Mo, 18.03. 19:00 3.8° C leichter Regen
Mo, 18.03. 13:00 6.2° C bedeckt
Mo, 18.03. 7:00 1.1° C wolkig
Mo, 18.03. 1:00 3.8° C wolkig
So, 17.03. 19:00 4.6° C bewölkt
So, 17.03. 13:00 16.9° C leicht bewölkt
So, 17.03. 7:00 7.2° C leicht bewölkt
So, 17.03. 1:00 2.6° C wolkig
Ortszeit Temperatur Wetter
Mo, 18.03. 20:30 3.2° C bewölkt
Mo, 18.03. 20:20 3.2° C bewölkt
Mo, 18.03. 20:10 3.0° C bedeckt
Mo, 18.03. 20:00 3.1° C bedeckt
Mo, 18.03. 19:50 3.1° C bedeckt
Mo, 18.03. 19:40 3.2° C bewölkt
Mo, 18.03. 19:30 3.2° C bewölkt
Mo, 18.03. 19:00 3.8° C leichter Regen
Mo, 18.03. 18:30 3.9° C bewölkt
Mo, 18.03. 18:00 4.6° C wolkig
Mo, 18.03. 17:30 6.3° C leicht bewölkt
Ortszeit Relative Feuchte Sichtweite
Mo, 18.03. 19:00 77% 27 km
Mo, 18.03. 13:00 56% 60 km
Mo, 18.03. 7:00 86% 45 km
Mo, 18.03. 1:00 78% 55 km
So, 17.03. 19:00 89% 70 km
So, 17.03. 13:00 29% 40 km
So, 17.03. 7:00 61% 60 km
So, 17.03. 1:00 98% 15 km
Ortszeit Relative Feuchte Sichtweite
Mo, 18.03. 20:30 81% 45 km
Mo, 18.03. 20:20 81% -
Mo, 18.03. 20:10 84% -
Mo, 18.03. 20:00 81% 40 km
Mo, 18.03. 19:50 81% -
Mo, 18.03. 19:40 79% -
Mo, 18.03. 19:30 79% 55 km
Mo, 18.03. 19:00 77% 27 km
Mo, 18.03. 18:30 74% 60 km
Mo, 18.03. 18:00 69% 60 km
Mo, 18.03. 17:30 56% 60 km
Ortszeit Niederschlagsmenge Niederschlagsart
Mo, 18.03. 19:00 0.1 l/m2 in 12 Std. Regen
Mo, 18.03. 13:00 0.1 l/m2 in 6 Std. Schnee, Regen
Mo, 18.03. 7:00 0.3 l/m2 in 12 Std. -
Mo, 18.03. 1:00 0.3 l/m2 in 6 Std. Regen
So, 17.03. 19:00 2 l/m2 in 12 Std. Regen
So, 17.03. 13:00 0.0 l/m2 in 6 Std. -
So, 17.03. 7:00 0.0 l/m2 in 12 Std. -
So, 17.03. 1:00 0.0 l/m2 in 6 Std. -
Ortszeit Niederschlagsmenge Niederschlagsart
Mo, 18.03. 20:30 0.1 l/m2 in 1 Std. Schneeregen
Mo, 18.03. 20:20 keine Meldung -
Mo, 18.03. 20:10 keine Meldung -
Mo, 18.03. 20:00 0.1 l/m2 in 1 Std. Regen
Mo, 18.03. 19:50 keine Meldung -
Mo, 18.03. 19:40 keine Meldung -
Mo, 18.03. 19:30 0.1 l/m2 in 1 Std. Schneeregen
Mo, 18.03. 19:00 0.1 l/m2 in 1 Std. Regen
Mo, 18.03. 18:30 0.1 l/m2 in 1 Std. Schneeregen
Mo, 18.03. 18:00 0.0 l/m2 in 1 Std. -
Mo, 18.03. 17:30 0.0 l/m2 in 1 Std. -
Ortszeit Stärke Spitze Richtung
km/h Bft. km/h Grad Sektor
Mo, 18.03. 19:00 20 4 37 260° W
Mo, 18.03. 13:00 22 4 40 270° W
Mo, 18.03. 7:00 9 2 33 210° SW
Mo, 18.03. 1:00 17 3 44 270° W
So, 17.03. 19:00 14 3 61 270° W
So, 17.03. 13:00 25 4 47 260° W
So, 17.03. 7:00 14 3 25 200° S
So, 17.03. 1:00 6 1 13 130° SO
Ortszeit Stärke Spitze Richtung
km/h Bft. km/h Grad Sektor
Mo, 18.03. 20:30 0 0 11 - -
Mo, 18.03. 20:20 2 1 - 230° SW
Mo, 18.03. 20:10 4 1 - 360° N
Mo, 18.03. 20:00 7 2 29 360° N
Mo, 18.03. 19:50 7 2 - 360° N
Mo, 18.03. 19:40 7 2 - 310° NW
Mo, 18.03. 19:30 7 2 29 250° W
Mo, 18.03. 19:00 20 4 33 260° W
Mo, 18.03. 18:30 11 2 32 270° W
Mo, 18.03. 18:00 20 4 35 330° NW
Mo, 18.03. 17:30 22 4 36 270° W
Ortszeit Untergrenze Bedeckung Gattung
total tief tief mittel hoch
Mo, 18.03. 19:00 960 m 7/8 5/8 - - -
Mo, 18.03. 13:00 1080 m 8/8 8/8 - - -
Mo, 18.03. 7:00 1500 m 8/8 3/8 - - -
Mo, 18.03. 1:00 690 m 8/8 1/8 - - -
So, 17.03. 19:00 1380 m 7/8 7/8 - - -
So, 17.03. 13:00 2700 m 3/8 3/8 - - -
So, 17.03. 7:00 9000 m 5/8 0/8 - - -
So, 17.03. 1:00 8700 m 7/8 0/8 - - -
Ortszeit Bedeckungsgrad in Achtel und Wolkenuntergrenze
Mo, 18.03. 20:30 3(900m) 7(2100m) 7(2700m)
Mo, 18.03. 20:20 3(900m) 7(2100m) 7(2700m)
Mo, 18.03. 20:10 4(900m) 7(1320m) 8(1500m)
Mo, 18.03. 20:00 1(930m) 8(1350m) 8(1500m)
Mo, 18.03. 19:50 1(930m) 8(1350m) 8(1500m)
Mo, 18.03. 19:40 7(1380m) 7(1800m) 7(3900m)
Mo, 18.03. 19:30 1(900m) 6(1800m) 7(3900m)
Mo, 18.03. 19:00 1(960m) 5(2100m) 7(3000m)
Mo, 18.03. 18:30 2(810m) 7(1800m) 8(3000m)
Mo, 18.03. 18:00 2(960m) 4(1800m) 6(2100m)
Mo, 18.03. 17:30 2(2100m) 4(2100m)
Ortszeit Luftdruck NN (hPa) Tendenz (hPa in 3 Std.)
Mo, 18.03. 19:00 1022 + 2,1
Mo, 18.03. 13:00 1019 + 0,9
Mo, 18.03. 7:00 1018 + 1,3
Mo, 18.03. 1:00 1015 + 2,1
So, 17.03. 19:00 1010 + 3,5
So, 17.03. 13:00 1003 - 1,6
So, 17.03. 7:00 1006 - 1,3
So, 17.03. 1:00 1010 - 1,5
Ortszeit Luftdruck NN (hPa) Tendenz (hPa in 3 Std.)
Mo, 18.03. 20:30 1023 + 2,4
Mo, 18.03. 20:20 1023 keine Meldung
Mo, 18.03. 20:10 1023 keine Meldung
Mo, 18.03. 20:00 1023 + 2,8
Mo, 18.03. 19:50 1023 keine Meldung
Mo, 18.03. 19:40 1023 keine Meldung
Mo, 18.03. 19:30 1023 + 2,4
Mo, 18.03. 19:00 1022 + 2,1
Mo, 18.03. 18:30 1022 + 1,6
Mo, 18.03. 18:00 1021 + 1,6
Mo, 18.03. 17:30 1020 + 1,0
Ortszeit Schneehöhe (cm)
Mo, 18.03. 19:00 0
Mo, 18.03. 13:00 0
Mo, 18.03. 7:00 0
Mo, 18.03. 1:00 0
So, 17.03. 19:00 0
So, 17.03. 13:00 0
So, 17.03. 7:00 0
So, 17.03. 1:00 0
Ortszeit Schneehöhe (cm)
Mo, 18.03. 20:30 0
Mo, 18.03. 20:20 0
Mo, 18.03. 20:10 0
Mo, 18.03. 20:00 0
Mo, 18.03. 19:50 0
Mo, 18.03. 19:40 0
Mo, 18.03. 19:30 0
Mo, 18.03. 19:00 0
Mo, 18.03. 18:30 0
Mo, 18.03. 18:00 0
Mo, 18.03. 17:30 0
Link zu dieser Seite / Seite empfehlen

Das Wetter in ...